createdAt,value
2022-08-17T09:21:26.693Z,100020.94
2022-08-17T09:24:05.056Z,100028.91
2022-08-17T09:26:39.506Z,100023.50
2022-08-17T09:29:13.642Z,100032.56
2022-08-17T09:31:55.171Z,100030.31
2022-08-17T09:34:39.748Z,100032.94
2022-08-17T09:37:25.290Z,100023.44
2022-08-17T09:40:07.506Z,100022.19
2022-08-17T09:42:45.439Z,100014.31
2022-08-17T09:45:28.977Z,100019.63
2022-08-17T09:48:05.033Z,100020.34
2022-08-17T09:51:04.174Z,100020.72
2022-08-17T09:53:34.514Z,100016.50
2022-08-17T09:56:20.109Z,100013.47
2022-08-17T09:59:11.334Z,100008.31
2022-08-17T10:01:44.819Z,100007.75
2022-08-17T10:04:29.934Z,99998.03
2022-08-17T10:07:07.351Z,100009.91
2022-08-17T10:09:55.973Z,100003.28
2022-08-17T10:12:37.228Z,100007.81
2022-08-17T10:15:22.513Z,99994.91
2022-08-17T10:18:09.538Z,100003.53
2022-08-17T10:20:49.263Z,100001.63
2022-08-17T10:23:37.703Z,99997.25
2022-08-17T10:26:17.441Z,99995.28
2022-08-17T10:28:55.126Z,99992.72
2022-08-17T10:31:35.169Z,99990.66
2022-08-17T10:34:38.712Z,99995.22
2022-08-17T10:38:02.945Z,99981.22
2022-08-17T10:40:39.769Z,99977.56
2022-08-17T10:43:33.055Z,99980.41
2022-08-17T10:46:31.410Z,99975.22
2022-08-17T10:49:16.901Z,99983.81
2022-08-17T10:51:48.193Z,99988.06
2022-08-17T10:54:40.016Z,99980.88
2022-08-17T10:57:38.445Z,99978.66
2022-08-17T11:00:15.986Z,99977.31
2022-08-17T11:02:51.104Z,99967.47
2022-08-17T11:05:43.442Z,99979.47
2022-08-17T11:08:41.087Z,99974.25
2022-08-17T11:11:27.421Z,99971.38
2022-08-17T11:14:17.153Z,99974.53
2022-08-17T11:17:07.556Z,99980.03
2022-08-17T11:19:51.271Z,99977.97
2022-08-17T11:22:42.872Z,99974.59
2022-08-17T11:25:17.819Z,99982.66
2022-08-17T11:27:53.952Z,99964.88
2022-08-17T11:30:48.499Z,99970.03
2022-08-17T11:33:57.700Z,99970.28
2022-08-17T11:36:54.701Z,99964.41
2022-08-17T11:39:39.015Z,99963.19
2022-08-17T11:42:21.401Z,99966.97
2022-08-17T11:44:56.603Z,99964.63
2022-08-17T11:47:57.185Z,99951.56
2022-08-17T11:51:04.083Z,99945.63
2022-08-17T11:57:02.373Z,99933.41
2022-08-17T11:59:58.613Z,99933.06
2022-08-17T12:02:48.836Z,99931.03
2022-08-17T12:05:42.004Z,99931.25
2022-08-17T12:08:20.271Z,99931.81
2022-08-17T12:11:03.306Z,99922.28
2022-08-17T12:13:39.987Z,99923.00
2022-08-17T12:16:10.601Z,99925.41
2022-08-17T12:18:42.224Z,99929.94
2022-08-17T12:21:28.019Z,99930.09
2022-08-17T12:24:03.327Z,99930.03
2022-08-17T12:26:35.070Z,99928.03
2022-08-17T12:29:09.439Z,99928.22
2022-08-17T12:31:50.648Z,99930.00
2022-08-17T12:34:22.527Z,99916.59
2022-08-17T12:37:01.067Z,99919.34
2022-08-17T12:49:25.351Z,99912.22
2022-08-17T12:52:04.762Z,99912.25
2022-08-17T12:54:43.414Z,99898.72
2022-08-17T12:57:17.036Z,99898.81
2022-08-17T12:59:49.312Z,99905.41
2022-08-17T13:02:41.990Z,99906.25
2022-08-17T13:05:20.454Z,99898.91
2022-08-17T13:07:53.174Z,99893.59
2022-08-17T13:10:32.142Z,99891.22
2022-08-17T13:13:05.005Z,99900.53
2022-08-17T13:15:44.512Z,99899.22
2022-08-17T13:18:43.562Z,99890.41
2022-08-17T13:21:26.707Z,99881.31
2022-08-17T13:24:05.078Z,99881.00
2022-08-17T13:26:38.414Z,99887.91
2022-08-17T13:29:11.051Z,99870.88
2022-08-17T13:31:46.600Z,99877.94
2022-08-17T13:34:48.955Z,99873.94
2022-08-17T13:37:32.902Z,99874.50
2022-08-17T13:40:22.171Z,99868.88
2022-08-17T13:42:54.153Z,99867.97
2022-08-17T13:45:50.599Z,99872.22
2022-08-17T13:48:25.939Z,99871.25
2022-08-17T13:51:16.355Z,99864.75
2022-08-17T13:53:59.408Z,99866.25
2022-08-17T13:56:40.455Z,99875.28
2022-08-17T13:59:13.858Z,99873.53
2022-08-17T14:01:49.664Z,99864.50
2022-08-17T14:04:25.567Z,99866.31
2022-08-17T14:06:57.802Z,99870.00
2022-08-17T14:09:36.876Z,99868.66
2022-08-17T14:12:15.451Z,99866.59
2022-08-17T14:14:45.393Z,99871.34
2022-08-17T14:17:15.626Z,99869.41
2022-08-17T14:19:45.507Z,99872.13
2022-08-17T14:22:31.450Z,99865.38
2022-08-17T14:25:02.075Z,99868.81
2022-08-17T14:27:43.562Z,99867.19
2022-08-17T14:30:24.583Z,99869.47
2022-08-17T14:32:55.522Z,99860.88
2022-08-17T14:35:27.969Z,99866.41
2022-08-17T14:37:58.505Z,99869.06
2022-08-17T14:40:29.339Z,99860.88
2022-08-17T14:43:01.554Z,99858.47
2022-08-17T14:45:32.534Z,99862.75
2022-08-17T14:48:04.187Z,99860.13
2022-08-17T14:50:35.254Z,99858.88
2022-08-17T14:53:06.104Z,99859.53
2022-08-17T14:55:35.605Z,99860.53
2022-08-17T14:58:09.182Z,99855.13
2022-08-17T15:00:39.522Z,99856.28
2022-08-17T15:03:08.958Z,99841.31
2022-08-17T15:05:40.640Z,99846.47
2022-08-17T15:08:10.406Z,99842.31
2022-08-17T15:10:39.963Z,99837.47
2022-08-17T15:13:20.617Z,99839.00
2022-08-17T15:15:50.566Z,99839.78
2022-08-17T15:18:20.088Z,99836.25
2022-08-17T15:20:51.458Z,99832.72
2022-08-17T15:23:23.368Z,99823.38
2022-08-17T15:25:55.265Z,99833.72
2022-08-17T15:28:27.263Z,99825.72
2022-08-17T15:30:57.499Z,99824.47
2022-08-17T15:33:31.764Z,99825.50
2022-08-17T15:36:03.696Z,99826.34
2022-08-17T15:38:39.190Z,99823.47
2022-08-17T15:41:10.168Z,99828.28
2022-08-17T15:43:42.169Z,99829.38
2022-08-17T15:46:15.224Z,99843.75
2022-08-17T15:48:46.587Z,99849.78
2022-08-17T15:51:18.312Z,99853.66
2022-08-17T15:53:50.637Z,99858.19
2022-08-17T15:56:20.468Z,99868.28
2022-08-17T15:58:54.795Z,99858.25
2022-08-17T16:03:05.648Z,99842.28
2022-08-17T16:04:29.532Z,99844.25
2022-08-17T16:07:00.901Z,99842.19
2022-08-17T16:09:31.331Z,99848.28
2022-08-17T16:12:01.429Z,99846.50
2022-08-17T16:14:35.255Z,99843.97
2022-08-17T16:17:38.380Z,99848.88
2022-08-17T16:20:02.314Z,99847.81
2022-08-17T16:22:35.421Z,99843.94
2022-08-17T16:25:08.219Z,99848.88
2022-08-17T16:27:38.418Z,99849.63
2022-08-17T16:30:17.051Z,99842.78
2022-08-17T16:32:48.125Z,99843.81
2022-08-17T16:35:18.993Z,99818.38
2022-08-17T16:37:56.560Z,99826.38
2022-08-17T16:40:29.776Z,99816.72
2022-08-17T16:43:03.420Z,99823.81
2022-08-17T16:45:41.075Z,99823.88
2022-08-17T16:48:12.251Z,99829.25
2022-08-17T16:50:42.919Z,99825.72
2022-08-17T16:53:33.003Z,99817.41
2022-08-17T16:56:04.065Z,99823.41
2022-08-17T16:58:35.834Z,99837.44
2022-08-17T17:01:11.025Z,99836.63
2022-08-17T17:03:44.268Z,99828.81
2022-08-17T17:06:22.756Z,99842.66
2022-08-17T17:08:59.387Z,99831.38
2022-08-17T17:11:35.417Z,99825.91
2022-08-17T17:14:09.190Z,99832.63
2022-08-17T17:16:47.394Z,99836.28
2022-08-17T17:19:34.242Z,99831.88
2022-08-17T17:22:11.905Z,99832.91
2022-08-17T17:24:51.350Z,99826.94
2022-08-17T17:27:33.457Z,99836.28
2022-08-17T17:30:11.656Z,99835.75
2022-08-17T17:32:52.471Z,99829.25
2022-08-17T17:35:27.765Z,99830.63
2022-08-17T17:38:02.586Z,99828.53
2022-08-17T17:40:40.503Z,99830.53
2022-08-17T17:43:37.541Z,99841.44
2022-08-17T17:46:27.724Z,99849.25
2022-08-17T17:49:02.679Z,99849.75
2022-08-17T17:52:09.301Z,99852.34
2022-08-17T17:54:49.611Z,99855.97
2022-08-17T17:57:27.793Z,99860.47
2022-08-17T18:00:05.306Z,99865.38
2022-08-17T18:02:52.124Z,99876.53
2022-08-17T18:06:10.335Z,99877.78
2022-08-17T18:08:52.244Z,99875.44
2022-08-17T18:11:51.717Z,99885.31
2022-08-17T18:14:34.451Z,99875.47
2022-08-17T18:17:04.887Z,99876.25
2022-08-17T18:19:35.367Z,99877.00
2022-08-17T18:22:14.571Z,99877.78
2022-08-17T18:24:48.525Z,99881.66
2022-08-17T18:27:26.119Z,99879.09
2022-08-17T18:30:00.268Z,99886.06
2022-08-17T18:32:42.349Z,99881.66
2022-08-17T18:35:31.534Z,99888.91
2022-08-17T18:38:34.282Z,99889.41
2022-08-17T18:41:08.280Z,99892.50
2022-08-17T18:43:52.716Z,99890.41
2022-08-17T18:46:39.295Z,99889.88
2022-08-17T18:49:29.880Z,99896.84
2022-08-17T18:52:13.391Z,99893.19
2022-08-17T18:55:04.810Z,99888.78
2022-08-17T18:57:38.112Z,99896.75
2022-08-17T19:09:47.124Z,99902.56
2022-08-17T19:12:28.550Z,99903.84
2022-08-17T19:14:59.829Z,99900.69
2022-08-17T19:17:38.074Z,99904.56
2022-08-17T19:20:15.738Z,99906.34
2022-08-17T19:22:58.160Z,99898.81
2022-08-17T19:25:34.388Z,99896.13
2022-08-17T19:28:21.827Z,99889.88
2022-08-17T19:30:53.243Z,99885.44
2022-08-17T19:33:22.715Z,99889.25
2022-08-17T19:36:01.987Z,99889.00
2022-08-17T19:38:42.358Z,99882.22
2022-08-17T19:41:23.035Z,99865.16
2022-08-17T19:44:09.456Z,99870.53
2022-08-17T19:47:00.785Z,99865.88
2022-08-17T19:49:40.925Z,99867.59
2022-08-17T19:52:25.059Z,99886.06
2022-08-17T19:55:02.577Z,99882.19
2022-08-17T19:57:44.330Z,99889.06
2022-08-17T20:00:20.869Z,99878.41
2022-08-17T20:06:19.091Z,99890.63
2022-08-17T20:12:21.052Z,99900.50
2022-08-17T20:14:57.297Z,99891.47
2022-08-17T20:17:29.824Z,99898.66
2022-08-17T20:20:07.737Z,99896.34
2022-08-17T20:26:09.835Z,99900.25
2022-08-17T20:28:41.510Z,99895.31
2022-08-17T20:31:46.320Z,99902.81
2022-08-17T20:34:38.065Z,99901.16
2022-08-17T20:37:12.225Z,99896.00
2022-08-17T20:39:44.675Z,99901.78
2022-08-17T20:42:33.420Z,99905.41
2022-08-17T20:45:19.731Z,99903.06
2022-08-17T20:48:18.560Z,99905.97
2022-08-17T20:50:53.447Z,99904.97
2022-08-17T20:54:04.567Z,99913.47
2022-08-17T20:56:57.882Z,99904.06
2022-08-17T21:00:14.512Z,99907.78
2022-08-17T21:02:46.388Z,99909.56
2022-08-17T21:05:40.641Z,99917.75
2022-08-17T21:08:22.046Z,99908.59
2022-08-17T21:14:10.775Z,99907.66
2022-08-17T21:16:58.138Z,99912.66
2022-08-17T21:20:00.527Z,99914.22
2022-08-17T21:22:43.386Z,99908.25
2022-08-17T21:25:29.886Z,99913.91
2022-08-17T21:28:11.436Z,99916.66
2022-08-17T21:30:51.370Z,99916.84
2022-08-17T21:33:26.957Z,99913.03
2022-08-17T21:36:12.853Z,99923.97
2022-08-17T21:38:45.836Z,99920.84
2022-08-17T21:41:26.521Z,99927.84
2022-08-17T21:44:05.423Z,99934.97
2022-08-17T21:46:40.143Z,99940.53
2022-08-17T21:49:13.795Z,99929.91
2022-08-17T21:51:49.328Z,99930.25
2022-08-17T21:54:34.094Z,99926.78
2022-08-17T21:57:10.411Z,99930.09
2022-08-17T21:59:41.973Z,99929.47
2022-08-17T22:02:21.583Z,99925.38
2022-08-17T22:05:03.303Z,99923.69
2022-08-17T22:07:39.067Z,99927.59
2022-08-17T22:10:30.567Z,99923.22
2022-08-17T22:13:17.132Z,99904.69
2022-08-17T22:15:49.285Z,99913.06
2022-08-17T22:18:24.894Z,99913.06
2022-08-17T22:20:58.290Z,99915.03
2022-08-17T22:23:55.326Z,99921.22
2022-08-17T22:26:28.199Z,99923.34
2022-08-17T22:29:02.026Z,99921.44
2022-08-17T22:31:45.762Z,99925.16
2022-08-17T22:34:17.526Z,99932.56
2022-08-17T22:36:47.016Z,99930.22
2022-08-17T22:39:43.442Z,99938.94
2022-08-17T22:42:17.344Z,99946.66
2022-08-17T22:44:54.773Z,99952.03
2022-08-17T22:47:38.803Z,99952.09
2022-08-17T22:50:19.366Z,99952.44
2022-08-17T22:53:12.711Z,99957.03
2022-08-17T22:56:04.651Z,99948.25
2022-08-17T22:58:58.741Z,99956.53
2022-08-17T23:01:35.033Z,99958.09
2022-08-17T23:04:07.750Z,99959.06
2022-08-17T23:06:40.205Z,99951.06
2022-08-17T23:09:10.209Z,99957.03
2022-08-17T23:11:49.048Z,99954.38
2022-08-17T23:14:21.408Z,99958.00
2022-08-17T23:16:54.313Z,99959.09
2022-08-17T23:19:24.799Z,99968.63
2022-08-17T23:21:55.492Z,99966.59
2022-08-17T23:24:27.871Z,99977.72
2022-08-17T23:27:00.147Z,99976.34
2022-08-17T23:29:30.351Z,99978.81
2022-08-17T23:32:04.896Z,99974.78
2022-08-17T23:34:34.704Z,99968.34
2022-08-17T23:37:04.637Z,99962.72
2022-08-17T23:39:34.767Z,99952.84
2022-08-17T23:42:07.992Z,99958.50
2022-08-17T23:44:38.140Z,99958.81
2022-08-17T23:47:10.912Z,99953.81
2022-08-17T23:49:41.496Z,99947.72
2022-08-17T23:52:14.996Z,99951.47
2022-08-17T23:54:48.283Z,99951.03
2022-08-17T23:57:20.299Z,99954.75
